PIMOHWEATHER Station Historical Data
Daily Summary for February 19, 2020 Units:  Metric    English   Both
Daily Weekly Monthly Yearly
  High: Low: Average:
Temperature: 32.0 °C 23.0 °C 27 °C
Dew Point: 22.0 °C 19.0 °C 20.5 °C
Humidity: 80% 55% 69%
Wind Speed: 30km/h 3km/h 13.7km/h
Wind Gust: 32km/h - -
Wind- - ESE
Pressure: 1018.0 hPa 1012.5 hPa -
Precipitation: 0.00 mm    
 
 
Tabular Data for February 19, 2020
Time Temperature Dew Point Pressure Wind Wind Speed Wind Gust Humidity Rainfall Rate (Hourly) solar
00:04 25.0 °C 21.0 °C 1016.6 hPa North 12 km/h 16 km/h 75% 0.00 mm 0.00 W/m2
00:09 25.0 °C 20.0 °C 1016.6 hPa North 9 km/h 12 km/h 75% 0.00 mm 0.00 W/m2
00:14 25.0 °C 21.0 °C 1016.6 hPa North 11 km/h 12 km/h 76% 0.00 mm 0.00 W/m2
00:19 25.0 °C 21.0 °C 1016.6 hPa North 7 km/h 12 km/h 76% 0.00 mm 0.00 W/m2
00:24 25.0 °C 20.0 °C 1016.3 hPa North 12 km/h 12 km/h 76% 0.00 mm 0.00 W/m2
00:29 25.0 °C 20.0 °C 1016.3 hPa NNE 10 km/h 12 km/h 76% 0.00 mm 0.00 W/m2
00:34 25.0 °C 20.0 °C 1016.3 hPa North 12 km/h 16 km/h 76% 0.00 mm 0.00 W/m2
00:39 25.0 °C 21.0 °C 1016.6 hPa NNW 15 km/h 16 km/h 77% 0.00 mm 0.00 W/m2
00:44 25.0 °C 21.0 °C 1016.6 hPa North 10 km/h 16 km/h 77% 0.00 mm 0.00 W/m2
00:49 25.0 °C 21.0 °C 1016.6 hPa North 14 km/h 16 km/h 77% 0.00 mm 0.00 W/m2
00:54 25.0 °C 20.0 °C 1015.9 hPa North 16 km/h 20 km/h 77% 0.00 mm 0.00 W/m2
00:59 25.0 °C 20.0 °C 1015.9 hPa NNW 8 km/h 12 km/h 77% 0.00 mm 0.00 W/m2
01:04 25.0 °C 20.0 °C 1015.9 hPa North 8 km/h 8 km/h 77% 0.00 mm 0.00 W/m2
01:09 25.0 °C 20.0 °C 1015.9 hPa North 10 km/h 12 km/h 77% 0.00 mm 0.00 W/m2
01:14 25.0 °C 20.0 °C 1015.9 hPa North 14 km/h 16 km/h 77% 0.00 mm 0.00 W/m2
01:19 25.0 °C 20.0 °C 1015.9 hPa North 14 km/h 16 km/h 77% 0.00 mm 0.00 W/m2
01:24 25.0 °C 20.0 °C 1015.9 hPa North 20 km/h 24 km/h 77% 0.00 mm 0.00 W/m2
01:29 25.0 °C 20.0 °C 1015.9 hPa North 9 km/h 12 km/h 77% 0.00 mm 0.00 W/m2
01:34 25.0 °C 20.0 °C 1015.9 hPa North 10 km/h 12 km/h 78% 0.00 mm 0.00 W/m2
01:39 25.0 °C 20.0 °C 1015.9 hPa North 10 km/h 12 km/h 78% 0.00 mm 0.00 W/m2
01:44 24.0 °C 20.0 °C 1015.9 hPa North 10 km/h 12 km/h 78% 0.00 mm 0.00 W/m2
01:49 24.0 °C 20.0 °C 1015.9 hPa North 15 km/h 16 km/h 78% 0.00 mm 0.00 W/m2
01:54 24.0 °C 20.0 °C 1015.9 hPa North 12 km/h 16 km/h 78% 0.00 mm 0.00 W/m2
01:59 24.0 °C 20.0 °C 1015.9 hPa NW 10 km/h 12 km/h 78% 0.00 mm 0.00 W/m2
02:04 24.0 °C 20.0 °C 1015.2 hPa NNW 11 km/h 12 km/h 79% 0.00 mm 0.00 W/m2
02:09 24.0 °C 20.0 °C 1015.2 hPa NNW 15 km/h 16 km/h 79% 0.00 mm 0.00 W/m2
02:14 24.0 °C 20.0 °C 1015.2 hPa NNW 7 km/h 8 km/h 79% 0.00 mm 0.00 W/m2
02:19 24.0 °C 20.0 °C 1015.2 hPa North 6 km/h 8 km/h 79% 0.00 mm 0.00 W/m2
02:24 24.0 °C 20.0 °C 1015.2 hPa North 10 km/h 12 km/h 79% 0.00 mm 0.00 W/m2
02:29 24.0 °C 20.0 °C 1015.2 hPa NNW 8 km/h 12 km/h 79% 0.00 mm 0.00 W/m2
02:34 24.0 °C 20.0 °C 1015.2 hPa North 11 km/h 12 km/h 79% 0.00 mm 0.00 W/m2
02:39 24.0 °C 20.0 °C 1015.2 hPa North 8 km/h 12 km/h 79% 0.00 mm 0.00 W/m2
02:44 24.0 °C 20.0 °C 1015.2 hPa NNW 6 km/h 8 km/h 79% 0.00 mm 0.00 W/m2
02:49 24.0 °C 20.0 °C 1015.2 hPa North 9 km/h 12 km/h 79% 0.00 mm 0.00 W/m2
02:54 24.0 °C 20.0 °C 1015.2 hPa NNW 6 km/h 8 km/h 80% 0.00 mm 0.00 W/m2
02:59 24.0 °C 20.0 °C 1015.2 hPa North 8 km/h 8 km/h 80% 0.00 mm 0.00 W/m2
03:04 24.0 °C 20.0 °C 1015.2 hPa North 9 km/h 12 km/h 79% 0.00 mm 0.00 W/m2
03:09 24.0 °C 20.0 °C 1015.2 hPa NNW 12 km/h 12 km/h 79% 0.00 mm 0.00 W/m2
03:14 24.0 °C 20.0 °C 1015.2 hPa NNW 12 km/h 16 km/h 80% 0.00 mm 0.00 W/m2
03:19 24.0 °C 20.0 °C 1015.2 hPa NNW 15 km/h 16 km/h 80% 0.00 mm 0.00 W/m2
03:24 24.0 °C 20.0 °C 1014.9 hPa NNW 14 km/h 16 km/h 80% 0.00 mm 0.00 W/m2
03:29 24.0 °C 20.0 °C 1015.2 hPa North 14 km/h 16 km/h 80% 0.00 mm 0.00 W/m2
03:34 24.0 °C 20.0 °C 1014.6 hPa North 18 km/h 20 km/h 80% 0.00 mm 0.00 W/m2
03:39 24.0 °C 20.0 °C 1014.6 hPa North 13 km/h 16 km/h 80% 0.00 mm 0.00 W/m2
03:44 24.0 °C 20.0 °C 1014.6 hPa NNW 15 km/h 20 km/h 80% 0.00 mm 0.00 W/m2
03:49 24.0 °C 20.0 °C 1014.6 hPa North 13 km/h 16 km/h 80% 0.00 mm 0.00 W/m2
03:54 24.0 °C 20.0 °C 1014.6 hPa NNW 12 km/h 12 km/h 80% 0.00 mm 0.00 W/m2
03:59 24.0 °C 20.0 °C 1014.6 hPa NNW 11 km/h 16 km/h 80% 0.00 mm 0.00 W/m2
04:04 24.0 °C 20.0 °C 1015.2 hPa NNW 13 km/h 16 km/h 80% 0.00 mm 0.00 W/m2
04:09 24.0 °C 20.0 °C 1014.6 hPa North 16 km/h 16 km/h 80% 0.00 mm 0.00 W/m2
04:14 24.0 °C 20.0 °C 1014.6 hPa NNW 15 km/h 20 km/h 79% 0.00 mm 0.00 W/m2
04:19 24.0 °C 20.0 °C 1015.2 hPa North 18 km/h 20 km/h 79% 0.00 mm 0.00 W/m2
04:24 24.0 °C 20.0 °C 1015.2 hPa North 17 km/h 20 km/h 79% 0.00 mm 0.00 W/m2
04:29 24.0 °C 20.0 °C 1015.2 hPa NNW 12 km/h 20 km/h 79% 0.00 mm 0.00 W/m2
04:34 24.0 °C 20.0 °C 1015.2 hPa NNW 15 km/h 20 km/h 79% 0.00 mm 0.00 W/m2
04:39 24.0 °C 20.0 °C 1015.2 hPa North 19 km/h 24 km/h 79% 0.00 mm 0.00 W/m2
04:44 24.0 °C 20.0 °C 1015.2 hPa North 17 km/h 24 km/h 79% 0.00 mm 0.00 W/m2
04:49 24.0 °C 20.0 °C 1015.2 hPa North 13 km/h 16 km/h 79% 0.00 mm 0.00 W/m2
04:54 24.0 °C 20.0 °C 1015.2 hPa NNW 8 km/h 12 km/h 79% 0.00 mm 0.00 W/m2
04:59 24.0 °C 20.0 °C 1015.2 hPa North 15 km/h 16 km/h 79% 0.00 mm 0.00 W/m2
05:04 24.0 °C 20.0 °C 1015.2 hPa North 14 km/h 16 km/h 78% 0.00 mm 0.00 W/m2
05:09 24.0 °C 20.0 °C 1015.2 hPa North 10 km/h 12 km/h 78% 0.00 mm 0.00 W/m2
05:14 24.0 °C 20.0 °C 1015.2 hPa North 8 km/h 12 km/h 78% 0.00 mm 0.00 W/m2
05:19 24.0 °C 20.0 °C 1015.2 hPa NW 6 km/h 12 km/h 78% 0.00 mm 0.00 W/m2
05:24 24.0 °C 20.0 °C 1015.9 hPa North 8 km/h 12 km/h 78% 0.00 mm 0.00 W/m2
05:29 24.0 °C 20.0 °C 1015.9 hPa NW 8 km/h 12 km/h 78% 0.00 mm 0.00 W/m2
05:34 24.0 °C 20.0 °C 1015.9 hPa NNW 15 km/h 24 km/h 78% 0.00 mm 0.00 W/m2
05:39 24.0 °C 20.0 °C 1015.9 hPa North 11 km/h 12 km/h 78% 0.00 mm 0.00 W/m2
05:44 24.0 °C 20.0 °C 1015.9 hPa NNW 6 km/h 8 km/h 78% 0.00 mm 0.00 W/m2
05:49 23.0 °C 19.0 °C 1015.9 hPa NW 12 km/h 16 km/h 78% 0.00 mm 0.00 W/m2
05:54 23.0 °C 19.0 °C 1015.9 hPa NW 12 km/h 12 km/h 78% 0.00 mm 0.00 W/m2
05:59 23.0 °C 19.0 °C 1015.9 hPa NW 12 km/h 16 km/h 78% 0.00 mm 0.00 W/m2
06:04 23.0 °C 19.0 °C 1015.9 hPa NNW 8 km/h 16 km/h 78% 0.00 mm 0.00 W/m2
06:09 23.0 °C 19.0 °C 1016.6 hPa NNW 10 km/h 12 km/h 78% 0.00 mm 0.00 W/m2
06:14 24.0 °C 20.0 °C 1016.6 hPa NNE 13 km/h 16 km/h 78% 0.00 mm 0.00 W/m2
06:19 24.0 °C 20.0 °C 1016.6 hPa North 13 km/h 16 km/h 78% 0.00 mm 2.45 W/m2
06:24 24.0 °C 20.0 °C 1016.6 hPa North 10 km/h 16 km/h 78% 0.00 mm 5.49 W/m2
06:29 24.0 °C 20.0 °C 1016.6 hPa NNE 14 km/h 16 km/h 78% 0.00 mm 9.33 W/m2
06:34 24.0 °C 20.0 °C 1016.6 hPa North 9 km/h 12 km/h 78% 0.00 mm 16.02 W/m2
06:39 24.0 °C 20.0 °C 1017.3 hPa North 13 km/h 16 km/h 78% 0.00 mm 19.87 W/m2
06:44 24.0 °C 19.0 °C 1016.6 hPa North 17 km/h 20 km/h 77% 0.00 mm 23.96 W/m2
06:49 24.0 °C 19.0 °C 1016.6 hPa North 13 km/h 16 km/h 77% 0.00 mm 29.39 W/m2
06:54 24.0 °C 19.0 °C 1017.3 hPa North 15 km/h 20 km/h 77% 0.00 mm 31.79 W/m2
06:59 24.0 °C 20.0 °C 1017.3 hPa North 14 km/h 20 km/h 77% 0.00 mm 35.15 W/m2
07:04 24.0 °C 20.0 °C 1017.3 hPa North 16 km/h 20 km/h 77% 0.00 mm 38.15 W/m2
07:09 24.0 °C 20.0 °C 1017.3 hPa North 13 km/h 20 km/h 76% 0.00 mm 42.07 W/m2
07:14 24.0 °C 20.0 °C 1017.3 hPa North 14 km/h 16 km/h 76% 0.00 mm 45.10 W/m2
07:19 24.0 °C 20.0 °C 1017.6 hPa NNW 14 km/h 16 km/h 76% 0.00 mm 50.77 W/m2
07:24 24.0 °C 20.0 °C 1017.3 hPa North 17 km/h 24 km/h 75% 0.00 mm 57.22 W/m2
07:29 25.0 °C 20.0 °C 1017.3 hPa North 13 km/h 20 km/h 75% 0.00 mm 65.87 W/m2
07:34 25.0 °C 20.0 °C 1017.6 hPa North 17 km/h 20 km/h 75% 0.00 mm 74.60 W/m2
07:39 25.0 °C 20.0 °C 1017.6 hPa NNW 15 km/h 16 km/h 75% 0.00 mm 84.06 W/m2
07:44 25.0 °C 20.0 °C 1017.6 hPa North 15 km/h 20 km/h 74% 0.00 mm 92.53 W/m2
07:49 25.0 °C 20.0 °C 1017.6 hPa North 11 km/h 12 km/h 74% 0.00 mm 102.68 W/m2
07:54 25.0 °C 20.0 °C 1017.6 hPa NNW 9 km/h 12 km/h 74% 0.00 mm 110.88 W/m2
07:59 25.0 °C 20.0 °C 1017.6 hPa NNE 15 km/h 24 km/h 73% 0.00 mm 120.25 W/m2
08:04 25.0 °C 20.0 °C 1017.6 hPa North 17 km/h 24 km/h 72% 0.00 mm 132.56 W/m2
08:09 26.0 °C 20.0 °C 1017.6 hPa NNE 19 km/h 20 km/h 72% 0.00 mm 142.86 W/m2
08:14 26.0 °C 20.0 °C 1018.0 hPa NNE 19 km/h 20 km/h 72% 0.00 mm 150.42 W/m2
08:19 26.0 °C 20.0 °C 1017.6 hPa NNE 20 km/h 24 km/h 71% 0.00 mm 164.29 W/m2
08:24 26.0 °C 20.0 °C 1017.6 hPa North 19 km/h 24 km/h 72% 0.00 mm 173.35 W/m2
08:29 26.0 °C 21.0 °C 1018.0 hPa North 18 km/h 24 km/h 71% 0.00 mm 183.16 W/m2
08:34 26.0 °C 20.0 °C 1018.0 hPa NNW 19 km/h 24 km/h 71% 0.00 mm 197.23 W/m2
08:39 26.0 °C 21.0 °C 1018.0 hPa North 17 km/h 20 km/h 71% 0.00 mm 207.16 W/m2
08:44 27.0 °C 21.0 °C 1018.0 hPa North 13 km/h 16 km/h 70% 0.00 mm 222.75 W/m2
08:49 27.0 °C 21.0 °C 1018.0 hPa NNE 21 km/h 24 km/h 69% 0.00 mm 231.11 W/m2
08:54 26.0 °C 21.0 °C 1018.0 hPa North 17 km/h 24 km/h 70% 0.00 mm 240.56 W/m2
08:59 27.0 °C 21.0 °C 1018.0 hPa NW 20 km/h 28 km/h 69% 0.00 mm 250.59 W/m2
09:04 27.0 °C 21.0 °C 1018.0 hPa North 17 km/h 28 km/h 69% 0.00 mm 257.78 W/m2
09:09 27.0 °C 21.0 °C 1018.0 hPa North 19 km/h 28 km/h 70% 0.00 mm 127.74 W/m2
09:14 27.0 °C 21.0 °C 1018.0 hPa North 10 km/h 12 km/h 70% 0.00 mm 282.37 W/m2
09:19 27.0 °C 21.0 °C 1018.0 hPa NW 13 km/h 16 km/h 70% 0.00 mm 302.97 W/m2
09:24 28.0 °C 21.0 °C 1018.0 hPa North 11 km/h 16 km/h 68% 0.00 mm 249.50 W/m2
09:29 27.0 °C 21.0 °C 1018.0 hPa NW 8 km/h 12 km/h 69% 0.00 mm 374.78 W/m2
09:34 28.0 °C 21.0 °C 1018.0 hPa NE 10 km/h 16 km/h 67% 0.00 mm 345.13 W/m2
09:39 28.0 °C 21.0 °C 1018.0 hPa North 7 km/h 16 km/h 67% 0.00 mm 328.69 W/m2
09:44 28.0 °C 21.0 °C 1018.0 hPa North 5 km/h 8 km/h 66% 0.00 mm 209.24 W/m2
09:49 29.0 °C 21.0 °C 1018.0 hPa North 5 km/h 8 km/h 65% 0.00 mm 444.12 W/m2
09:54 30.0 °C 21.0 °C 1018.0 hPa East 5 km/h 8 km/h 62% 0.00 mm 451.24 W/m2
09:59 30.0 °C 21.0 °C 1018.0 hPa SE 13 km/h 16 km/h 63% 0.00 mm 361.13 W/m2
10:04 29.0 °C 21.0 °C 1018.0 hPa ESE 13 km/h 16 km/h 64% 0.00 mm 423.74 W/m2
10:09 29.0 °C 21.0 °C 1018.0 hPa SSE 14 km/h 16 km/h 65% 0.00 mm 434.09 W/m2
10:14 29.0 °C 21.0 °C 1017.6 hPa SE 14 km/h 16 km/h 65% 0.00 mm 413.05 W/m2
10:19 29.0 °C 21.0 °C 1017.6 hPa SE 17 km/h 20 km/h 65% 0.00 mm 430.72 W/m2
10:24 29.0 °C 21.0 °C 1017.6 hPa SSE 12 km/h 16 km/h 64% 0.00 mm 196.69 W/m2
10:29 29.0 °C 21.0 °C 1017.6 hPa NNW 11 km/h 12 km/h 64% 0.00 mm 215.04 W/m2
10:34 29.0 °C 21.0 °C 1017.6 hPa North 14 km/h 16 km/h 64% 0.00 mm 439.18 W/m2
10:39 29.0 °C 21.0 °C 1017.6 hPa NNE 15 km/h 16 km/h 64% 0.00 mm 150.82 W/m2
10:44 29.0 °C 21.0 °C 1017.6 hPa NE 10 km/h 16 km/h 63% 0.00 mm 182.62 W/m2
10:49 29.0 °C 21.0 °C 1017.6 hPa NNE 13 km/h 16 km/h 62% 0.00 mm 462.48 W/m2
10:54 30.0 °C 21.0 °C 1017.3 hPa East 6 km/h 8 km/h 61% 0.00 mm 471.90 W/m2
10:59 30.0 °C 21.0 °C 1017.3 hPa NE 14 km/h 20 km/h 60% 0.00 mm 453.28 W/m2
11:04 29.0 °C 21.0 °C 1017.3 hPa NNE 15 km/h 16 km/h 62% 0.00 mm 137.40 W/m2
11:09 29.0 °C 21.0 °C 1017.3 hPa North 13 km/h 16 km/h 63% 0.00 mm 413.17 W/m2
11:14 30.0 °C 21.0 °C 1016.9 hPa North 13 km/h 16 km/h 62% 0.00 mm 410.43 W/m2
11:19 30.0 °C 21.0 °C 1016.9 hPa NE 15 km/h 20 km/h 60% 0.00 mm 424.65 W/m2
11:24 30.0 °C 21.0 °C 1016.9 hPa NNE 20 km/h 24 km/h 62% 0.00 mm 430.42 W/m2
11:29 31.0 °C 21.0 °C 1016.9 hPa East 12 km/h 16 km/h 60% 0.00 mm 443.51 W/m2
11:34 31.0 °C 22.0 °C 1016.9 hPa NNE 15 km/h 20 km/h 59% 0.00 mm 435.04 W/m2
11:39 31.0 °C 22.0 °C 1016.9 hPa NE 13 km/h 20 km/h 60% 0.00 mm 435.46 W/m2
11:44 31.0 °C 22.0 °C 1016.6 hPa East 7 km/h 12 km/h 58% 0.00 mm 465.24 W/m2
11:49 31.0 °C 22.0 °C 1016.6 hPa NE 13 km/h 20 km/h 59% 0.00 mm 469.77 W/m2
11:54 31.0 °C 22.0 °C 1016.6 hPa NNE 18 km/h 20 km/h 59% 0.00 mm 470.26 W/m2
11:59 31.0 °C 22.0 °C 1016.6 hPa North 20 km/h 24 km/h 61% 0.00 mm 439.94 W/m2
12:04 31.0 °C 22.0 °C 1016.6 hPa NNE 16 km/h 20 km/h 61% 0.00 mm 431.55 W/m2
12:09 32.0 °C 22.0 °C 1016.3 hPa NNE 19 km/h 28 km/h 58% 0.00 mm 435.19 W/m2
12:14 31.0 °C 22.0 °C 1016.3 hPa NE 21 km/h 28 km/h 59% 0.00 mm 433.19 W/m2
12:19 31.0 °C 22.0 °C 1016.3 hPa North 15 km/h 20 km/h 60% 0.00 mm 434.29 W/m2
12:24 31.0 °C 22.0 °C 1015.9 hPa NNE 21 km/h 24 km/h 60% 0.00 mm 431.96 W/m2
12:29 31.0 °C 22.0 °C 1015.9 hPa NNE 15 km/h 20 km/h 60% 0.00 mm 434.48 W/m2
12:34 31.0 °C 22.0 °C 1015.9 hPa North 15 km/h 20 km/h 59% 0.00 mm 440.67 W/m2
12:39 31.0 °C 22.0 °C 1015.9 hPa North 18 km/h 24 km/h 58% 0.00 mm 438.96 W/m2
12:44 31.0 °C 22.0 °C 1015.6 hPa NNE 30 km/h 32 km/h 59% 0.00 mm 437.35 W/m2
12:49 32.0 °C 22.0 °C 1015.6 hPa NNE 18 km/h 28 km/h 59% 0.00 mm 444.12 W/m2
12:54 32.0 °C 22.0 °C 1015.6 hPa NE 13 km/h 20 km/h 57% 0.00 mm 467.76 W/m2
12:59 32.0 °C 22.0 °C 1015.6 hPa NNE 18 km/h 20 km/h 57% 0.00 mm 489.36 W/m2
13:04 31.0 °C 22.0 °C 1015.2 hPa North 21 km/h 28 km/h 59% 0.00 mm 457.34 W/m2
13:09 31.0 °C 22.0 °C 1015.2 hPa NNE 24 km/h 28 km/h 58% 0.00 mm 463.67 W/m2
13:14 31.0 °C 22.0 °C 1014.9 hPa NNW 24 km/h 28 km/h 58% 0.00 mm 461.35 W/m2
13:19 31.0 °C 22.0 °C 1015.2 hPa NNW 7 km/h 12 km/h 58% 0.00 mm 417.31 W/m2
13:24 31.0 °C 22.0 °C 1014.9 hPa North 25 km/h 28 km/h 59% 0.00 mm 426.90 W/m2
13:29 31.0 °C 22.0 °C 1014.9 hPa NNE 19 km/h 28 km/h 58% 0.00 mm 440.63 W/m2
13:34 31.0 °C 21.0 °C 1014.9 hPa NNE 16 km/h 24 km/h 58% 0.00 mm 453.21 W/m2
13:39 32.0 °C 22.0 °C 1014.9 hPa North 18 km/h 24 km/h 57% 0.00 mm 464.75 W/m2
13:44 32.0 °C 22.0 °C 1014.6 hPa North 21 km/h 24 km/h 58% 0.00 mm 453.20 W/m2
13:49 32.0 °C 22.0 °C 1014.6 hPa NNE 20 km/h 24 km/h 56% 0.00 mm 464.58 W/m2
13:54 31.0 °C 21.0 °C 1014.6 hPa NNE 20 km/h 24 km/h 57% 0.00 mm 454.13 W/m2
13:59 31.0 °C 21.0 °C 1014.2 hPa NNE 18 km/h 20 km/h 58% 0.00 mm 165.83 W/m2
14:04 31.0 °C 22.0 °C 1014.6 hPa North 20 km/h 24 km/h 58% 0.00 mm 450.34 W/m2
14:09 31.0 °C 21.0 °C 1014.2 hPa NNE 19 km/h 24 km/h 57% 0.00 mm 449.73 W/m2
14:14 31.0 °C 21.0 °C 1014.2 hPa NE 15 km/h 20 km/h 57% 0.00 mm 452.15 W/m2
14:19 32.0 °C 21.0 °C 1014.2 hPa NNE 20 km/h 24 km/h 57% 0.00 mm 442.34 W/m2
14:24 32.0 °C 21.0 °C 1014.2 hPa NE 20 km/h 24 km/h 57% 0.00 mm 440.53 W/m2
14:29 31.0 °C 21.0 °C 1014.2 hPa NNE 26 km/h 32 km/h 57% 0.00 mm 441.31 W/m2
14:34 31.0 °C 21.0 °C 1012.9 hPa NNE 21 km/h 28 km/h 56% 0.00 mm 441.53 W/m2
14:39 32.0 °C 22.0 °C 1012.9 hPa NNE 18 km/h 24 km/h 56% 0.00 mm 432.01 W/m2
14:44 31.0 °C 21.0 °C 1012.9 hPa NNE 21 km/h 28 km/h 57% 0.00 mm 425.99 W/m2
14:45 30.0 °C 21.0 °C 1012.5 hPa NE 16 km/h 24 km/h 56% 0.00 mm 414.27 W/m2
14:59 31.0 °C 21.0 °C 1012.5 hPa ENE 19 km/h 28 km/h 57% 0.00 mm 410.92 W/m2
15:04 31.0 °C 21.0 °C 1012.9 hPa NE 16 km/h 24 km/h 56% 0.00 mm 392.87 W/m2
15:09 31.0 °C 21.0 °C 1012.9 hPa NNE 19 km/h 24 km/h 57% 0.00 mm 403.44 W/m2
15:14 31.0 °C 21.0 °C 1012.9 hPa NNE 14 km/h 20 km/h 57% 0.00 mm 399.28 W/m2
15:19 32.0 °C 21.0 °C 1012.9 hPa North 10 km/h 16 km/h 55% 0.00 mm 388.44 W/m2
15:24 32.0 °C 21.0 °C 1012.9 hPa NNE 21 km/h 24 km/h 55% 0.00 mm 389.46 W/m2
15:29 31.0 °C 21.0 °C 1012.9 hPa NNE 21 km/h 28 km/h 56% 0.00 mm 382.66 W/m2
15:34 32.0 °C 21.0 °C 1012.9 hPa NE 12 km/h 16 km/h 56% 0.00 mm 382.30 W/m2
15:39 32.0 °C 21.0 °C 1012.9 hPa ESE 12 km/h 16 km/h 56% 0.00 mm 380.29 W/m2
15:44 31.0 °C 21.0 °C 1012.9 hPa NE 10 km/h 16 km/h 56% 0.00 mm 358.15 W/m2
15:49 31.0 °C 21.0 °C 1012.9 hPa NE 17 km/h 20 km/h 58% 0.00 mm 354.48 W/m2
15:54 31.0 °C 21.0 °C 1013.2 hPa NNE 20 km/h 24 km/h 57% 0.00 mm 348.34 W/m2
15:59 31.0 °C 21.0 °C 1012.9 hPa NE 15 km/h 20 km/h 58% 0.00 mm 341.04 W/m2
16:04 31.0 °C 21.0 °C 1012.9 hPa NE 22 km/h 28 km/h 57% 0.00 mm 324.82 W/m2
16:09 31.0 °C 21.0 °C 1012.9 hPa ENE 12 km/h 16 km/h 57% 0.00 mm 325.09 W/m2
16:14 31.0 °C 21.0 °C 1012.9 hPa NE 21 km/h 24 km/h 58% 0.00 mm 302.34 W/m2
16:19 30.0 °C 21.0 °C 1012.9 hPa NNE 23 km/h 28 km/h 58% 0.00 mm 290.37 W/m2
16:24 30.0 °C 21.0 °C 1014.6 hPa NE 22 km/h 24 km/h 58% 0.00 mm 281.98 W/m2
16:29 30.0 °C 21.0 °C 1014.6 hPa NE 22 km/h 32 km/h 59% 0.00 mm 282.96 W/m2
16:34 30.0 °C 21.0 °C 1014.6 hPa NNE 16 km/h 28 km/h 59% 0.00 mm 265.99 W/m2
16:39 30.0 °C 21.0 °C 1014.6 hPa NNE 24 km/h 28 km/h 60% 0.00 mm 253.21 W/m2
16:44 30.0 °C 21.0 °C 1014.6 hPa NNE 12 km/h 20 km/h 60% 0.00 mm 240.66 W/m2
16:49 30.0 °C 21.0 °C 1014.6 hPa NNE 19 km/h 24 km/h 60% 0.00 mm 230.72 W/m2
16:54 30.0 °C 21.0 °C 1014.9 hPa NE 29 km/h 32 km/h 62% 0.00 mm 217.92 W/m2
16:59 29.0 °C 21.0 °C 1014.9 hPa NNE 21 km/h 32 km/h 62% 0.00 mm 202.03 W/m2
17:04 29.0 °C 21.0 °C 1014.9 hPa NNE 18 km/h 24 km/h 61% 0.00 mm 195.01 W/m2
17:09 29.0 °C 21.0 °C 1014.9 hPa NNE 16 km/h 28 km/h 61% 0.00 mm 62.28 W/m2
17:14 29.0 °C 21.0 °C 1014.9 hPa NE 18 km/h 24 km/h 62% 0.00 mm 57.34 W/m2
17:19 29.0 °C 21.0 °C 1014.9 hPa NNE 12 km/h 24 km/h 62% 0.00 mm 51.22 W/m2
17:24 29.0 °C 21.0 °C 1014.9 hPa NNE 22 km/h 32 km/h 63% 0.00 mm 45.83 W/m2
17:29 28.0 °C 21.0 °C 1014.9 hPa NE 15 km/h 24 km/h 63% 0.00 mm 40.64 W/m2
17:34 28.0 °C 21.0 °C 1014.9 hPa NE 18 km/h 24 km/h 63% 0.00 mm 35.76 W/m2
17:39 28.0 °C 21.0 °C 1015.2 hPa NE 29 km/h 32 km/h 64% 0.00 mm 31.03 W/m2
17:44 28.0 °C 21.0 °C 1015.2 hPa NE 19 km/h 24 km/h 64% 0.00 mm 25.45 W/m2
17:49 28.0 °C 20.0 °C 1015.2 hPa NNE 20 km/h 28 km/h 64% 0.00 mm 19.59 W/m2
17:54 28.0 °C 20.0 °C 1015.2 hPa NNE 10 km/h 20 km/h 64% 0.00 mm 12.60 W/m2
17:59 28.0 °C 20.0 °C 1015.2 hPa NNE 18 km/h 20 km/h 65% 0.00 mm 7.43 W/m2
18:04 27.0 °C 20.0 °C 1015.2 hPa NNE 17 km/h 32 km/h 65% 0.00 mm 3.66 W/m2
18:09 27.0 °C 20.0 °C 1015.2 hPa NNE 13 km/h 20 km/h 66% 0.00 mm 0.26 W/m2
18:14 27.0 °C 20.0 °C 1015.2 hPa NNE 15 km/h 20 km/h 66% 0.00 mm 0.00 W/m2
18:19 27.0 °C 20.0 °C 1015.2 hPa NNW 11 km/h 16 km/h 66% 0.00 mm 0.00 W/m2
18:24 27.0 °C 20.0 °C 1015.2 hPa NNE 15 km/h 20 km/h 67% 0.00 mm 0.00 W/m2
18:29 27.0 °C 20.0 °C 1015.2 hPa NE 17 km/h 28 km/h 67% 0.00 mm 0.00 W/m2
18:34 27.0 °C 20.0 °C 1015.6 hPa NE 20 km/h 28 km/h 67% 0.00 mm 0.00 W/m2
18:39 27.0 °C 20.0 °C 1015.6 hPa NE 10 km/h 20 km/h 67% 0.00 mm 0.00 W/m2
18:44 27.0 °C 20.0 °C 1015.6 hPa NNE 12 km/h 20 km/h 67% 0.00 mm 0.00 W/m2
18:49 27.0 °C 20.0 °C 1015.9 hPa NE 15 km/h 24 km/h 67% 0.00 mm 0.00 W/m2
18:54 27.0 °C 20.0 °C 1015.9 hPa NE 9 km/h 20 km/h 67% 0.00 mm 0.00 W/m2
18:59 26.0 °C 20.0 °C 1015.9 hPa NE 12 km/h 20 km/h 67% 0.00 mm 0.00 W/m2
19:04 26.0 °C 20.0 °C 1015.9 hPa NE 10 km/h 20 km/h 67% 0.00 mm 0.00 W/m2
19:09 26.0 °C 20.0 °C 1015.9 hPa NNE 19 km/h 28 km/h 67% 0.00 mm 0.00 W/m2
19:14 26.0 °C 20.0 °C 1015.9 hPa ENE 9 km/h 12 km/h 67% 0.00 mm 0.00 W/m2
19:19 26.0 °C 20.0 °C 1015.9 hPa NNE 7 km/h 12 km/h 67% 0.00 mm 0.00 W/m2
19:24 26.0 °C 20.0 °C 1015.9 hPa ENE 6 km/h 8 km/h 67% 0.00 mm 0.00 W/m2
19:29 26.0 °C 20.0 °C 1015.9 hPa NE 9 km/h 12 km/h 67% 0.00 mm 0.00 W/m2
19:34 26.0 °C 20.0 °C 1016.3 hPa NNE 26 km/h 32 km/h 68% 0.00 mm 0.00 W/m2
19:39 26.0 °C 20.0 °C 1016.3 hPa NNE 11 km/h 20 km/h 68% 0.00 mm 0.00 W/m2
19:44 26.0 °C 20.0 °C 1016.3 hPa NE 5 km/h 8 km/h 68% 0.00 mm 0.00 W/m2
19:49 26.0 °C 20.0 °C 1016.3 hPa NW 16 km/h 16 km/h 68% 0.00 mm 0.00 W/m2
19:54 26.0 °C 20.0 °C 1016.3 hPa NE 17 km/h 24 km/h 68% 0.00 mm 0.00 W/m2
19:59 26.0 °C 20.0 °C 1016.3 hPa NNE 11 km/h 16 km/h 68% 0.00 mm 0.00 W/m2
20:04 26.0 °C 20.0 °C 1016.3 hPa NE 6 km/h 12 km/h 69% 0.00 mm 0.00 W/m2
20:09 26.0 °C 20.0 °C 1016.3 hPa ENE 14 km/h 16 km/h 69% 0.00 mm 0.00 W/m2
20:14 26.0 °C 20.0 °C 1016.6 hPa NNE 10 km/h 16 km/h 69% 0.00 mm 0.00 W/m2
20:19 26.0 °C 20.0 °C 1016.6 hPa NE 16 km/h 20 km/h 69% 0.00 mm 0.00 W/m2
20:24 26.0 °C 20.0 °C 1016.6 hPa NE 10 km/h 12 km/h 68% 0.00 mm 0.00 W/m2
20:29 26.0 °C 20.0 °C 1016.6 hPa NE 8 km/h 20 km/h 68% 0.00 mm 0.00 W/m2
20:34 26.0 °C 20.0 °C 1016.9 hPa NNE 18 km/h 20 km/h 69% 0.00 mm 0.00 W/m2
20:39 26.0 °C 20.0 °C 1016.9 hPa ENE 8 km/h 16 km/h 69% 0.00 mm 0.00 W/m2
20:44 26.0 °C 20.0 °C 1016.9 hPa NE 6 km/h 8 km/h 69% 0.00 mm 0.00 W/m2
20:49 26.0 °C 20.0 °C 1016.9 hPa NNE 15 km/h 24 km/h 69% 0.00 mm 0.00 W/m2
20:54 26.0 °C 20.0 °C 1016.9 hPa NE 10 km/h 16 km/h 69% 0.00 mm 0.00 W/m2
20:59 26.0 °C 20.0 °C 1016.9 hPa NE 9 km/h 16 km/h 69% 0.00 mm 0.00 W/m2
21:04 26.0 °C 20.0 °C 1016.9 hPa NNE 9 km/h 16 km/h 69% 0.00 mm 0.00 W/m2
21:09 26.0 °C 20.0 °C 1017.3 hPa NE 15 km/h 16 km/h 69% 0.00 mm 0.00 W/m2
21:14 26.0 °C 20.0 °C 1016.9 hPa NE 10 km/h 12 km/h 69% 0.00 mm 0.00 W/m2
21:19 26.0 °C 20.0 °C 1016.9 hPa NE 8 km/h 16 km/h 69% 0.00 mm 0.00 W/m2
21:24 26.0 °C 20.0 °C 1017.3 hPa SSE 3 km/h 8 km/h 69% 0.00 mm 0.00 W/m2
21:29 26.0 °C 20.0 °C 1017.3 hPa NE 4 km/h 12 km/h 69% 0.00 mm 0.00 W/m2
21:34 26.0 °C 20.0 °C 1017.3 hPa NE 7 km/h 12 km/h 69% 0.00 mm 0.00 W/m2
21:39 26.0 °C 20.0 °C 1017.3 hPa NE 6 km/h 16 km/h 69% 0.00 mm 0.00 W/m2
21:44 26.0 °C 20.0 °C 1017.3 hPa ENE 6 km/h 12 km/h 69% 0.00 mm 0.00 W/m2
21:49 26.0 °C 20.0 °C 1017.3 hPa NE 10 km/h 20 km/h 69% 0.00 mm 0.00 W/m2
21:54 26.0 °C 20.0 °C 1017.3 hPa NE 7 km/h 12 km/h 69% 0.00 mm 0.00 W/m2
21:59 26.0 °C 20.0 °C 1017.3 hPa NE 11 km/h 20 km/h 69% 0.00 mm 0.00 W/m2
22:04 26.0 °C 20.0 °C 1017.3 hPa NE 17 km/h 32 km/h 69% 0.00 mm 0.00 W/m2
22:09 26.0 °C 20.0 °C 1017.3 hPa NNE 13 km/h 20 km/h 69% 0.00 mm 0.00 W/m2
22:14 26.0 °C 20.0 °C 1017.3 hPa NNE 12 km/h 24 km/h 70% 0.00 mm 0.00 W/m2
22:19 26.0 °C 20.0 °C 1017.3 hPa NNE 21 km/h 24 km/h 70% 0.00 mm 0.00 W/m2
22:24 26.0 °C 20.0 °C 1017.3 hPa NNE 19 km/h 24 km/h 70% 0.00 mm 0.00 W/m2
22:29 26.0 °C 20.0 °C 1017.3 hPa NE 11 km/h 20 km/h 70% 0.00 mm 0.00 W/m2
22:34 26.0 °C 20.0 °C 1017.3 hPa NE 9 km/h 12 km/h 70% 0.00 mm 0.00 W/m2
22:39 26.0 °C 20.0 °C 1017.3 hPa NE 17 km/h 24 km/h 70% 0.00 mm 0.00 W/m2
22:44 26.0 °C 20.0 °C 1017.3 hPa NE 9 km/h 12 km/h 70% 0.00 mm 0.00 W/m2
22:49 26.0 °C 20.0 °C 1017.3 hPa NE 9 km/h 12 km/h 70% 0.00 mm 0.00 W/m2
22:54 26.0 °C 20.0 °C 1017.3 hPa ENE 13 km/h 16 km/h 70% 0.00 mm 0.00 W/m2
22:59 26.0 °C 20.0 °C 1017.3 hPa ENE 5 km/h 12 km/h 70% 0.00 mm 0.00 W/m2
23:04 26.0 °C 20.0 °C 1017.3 hPa ENE 7 km/h 16 km/h 70% 0.00 mm 0.00 W/m2
23:09 26.0 °C 20.0 °C 1017.3 hPa NNE 8 km/h 16 km/h 70% 0.00 mm 0.00 W/m2
23:14 26.0 °C 20.0 °C 1017.3 hPa North 4 km/h 8 km/h 70% 0.00 mm 0.00 W/m2
23:19 26.0 °C 20.0 °C 1016.9 hPa NNE 9 km/h 12 km/h 71% 0.00 mm 0.00 W/m2
23:24 25.0 °C 20.0 °C 1016.9 hPa NE 10 km/h 12 km/h 70% 0.00 mm 0.00 W/m2
23:29 25.0 °C 20.0 °C 1016.9 hPa North 7 km/h 12 km/h 71% 0.00 mm 0.00 W/m2
23:34 25.0 °C 20.0 °C 1016.9 hPa NNE 10 km/h 12 km/h 71% 0.00 mm 0.00 W/m2
23:39 25.0 °C 20.0 °C 1016.9 hPa NNE 6 km/h 8 km/h 71% 0.00 mm 0.00 W/m2
23:44 25.0 °C 20.0 °C 1016.9 hPa North 5 km/h 8 km/h 71% 0.00 mm 0.00 W/m2
23:49 25.0 °C 20.0 °C 1016.9 hPa North 9 km/h 12 km/h 71% 0.00 mm 0.00 W/m2
23:54 25.0 °C 20.0 °C 1016.9 hPa NNW 6 km/h 8 km/h 72% 0.00 mm 0.00 W/m2
23:59 25.0 °C 20.0 °C 1016.9 hPa NW 5 km/h 8 km/h 73% 0.00 mm 0.00 W/m2
PIMOHWEATHER Philippines
Compliments of Weather Underground - 2 mb